Paden City, West Virginia
Current Conditions -  °F | °C
As of 12:23 AM on Thursday 27 Nov 2014 (Local Time) from KPKB Reporting Station
Moderate Fog Moderate Fog  
Wind Chill: 33°   Ceiling: 200
Heat Index: 33°   Visibility: 0.25mi
Dew Point: 32°   Wind: 0mph
Humidity: 96%   Direction: NA
Pressure: 30.05"   Gusts: NA
Location:  39.6°N, 80.94°W
Report Text: KPKB 270523Z AUTO 00000KT 1/4SM FG VV002 01/00 A3005 RMK AO2 T00060000 RVRNO
Loading
Personal Weather Stations






























Interactive Weather Map New forecast layout! Learn more

10-Day Weather Forecast

Advertisements
Track Severe Weather on mobile